Time;durP1;ratioP1;P1;durP2;ratioP2;P2;SDS_P1;SDS_P2;PMS_P1;PMS_P2;Temp;Humidity;BMP_temperature;BMP_pressure;BME280_temperature;BME280_humidity;BME280_pressure;Samples;Min_cycle;Max_cycle;Signal;HPM_P1;HPM_P2
2022/08/17 00:01:00;;;;;;;4.63;3.55;;;23.10;98.90;;;;;;5035997;28;20655;-56
2022/08/17 00:03:32;;;;;;;4.70;3.67;;;23.00;99.20;;;;;;5036127;28;20172;-57
2022/08/17 00:06:02;;;;;;;5.30;3.65;;;23.00;99.30;;;;;;5034865;28;20168;-57
2022/08/17 00:08:50;;;;;;;6.30;3.83;;;23.00;99.30;;;;;;5035945;28;20170;-57
2022/08/17 00:11:20;;;;;;;5.93;3.83;;;23.10;99.40;;;;;;5035370;28;20192;-57
2022/08/17 00:13:50;;;;;;;5.13;3.42;;;23.00;99.50;;;;;;5034680;28;20180;-57
2022/08/17 00:16:22;;;;;;;4.68;3.35;;;23.00;99.40;;;;;;5035844;28;20218;-57
2022/08/17 00:18:49;;;;;;;4.80;3.88;;;22.90;99.60;;;;;;5035681;28;20186;-56
2022/08/17 00:21:16;;;;;;;4.63;3.33;;;22.90;99.80;;;;;;5034278;28;20215;-57
2022/08/17 00:23:43;;;;;;;7.50;4.35;;;23.00;99.80;;;;;;5035574;28;20660;-57
2022/08/17 00:26:10;;;;;;;5.60;4.32;;;22.90;99.90;;;;;;5035716;28;20164;-56
2022/08/17 00:28:37;;;;;;;4.35;3.42;;;22.90;99.90;;;;;;5034557;28;20196;-57
2022/08/17 00:31:04;;;;;;;6.20;4.32;;;22.90;99.90;;;;;;5035500;28;20176;-58
2022/08/17 00:33:30;;;;;;;5.95;4.15;;;22.90;99.90;;;;;;5034116;28;20223;-58
2022/08/17 00:35:59;;;;;;;5.03;4.28;;;22.90;99.90;;;;;;5034028;28;20180;-58
2022/08/17 00:38:26;;;;;;;7.28;4.90;;;22.80;99.90;;;;;;5034210;28;20183;-58
2022/08/17 00:41:16;;;;;;;5.05;4.05;;;22.80;99.90;;;;;;5035274;28;20239;-58
2022/08/17 00:43:52;;;;;;;5.45;3.63;;;22.80;99.90;;;;;;5035207;28;20175;-58
2022/08/17 00:46:20;;;;;;;5.35;4.07;;;22.80;99.90;;;;;;5035193;28;20176;-58
2022/08/17 00:48:48;;;;;;;4.95;3.88;;;22.80;99.90;;;;;;5035021;28;20533;-57
2022/08/17 00:51:28;;;;;;;5.75;3.95;;;22.80;99.90;;;;;;5034998;28;20629;-57
2022/08/17 00:54:01;;;;;;;6.30;4.25;;;22.70;99.90;;;;;;5035410;28;20215;-57
2022/08/17 00:56:34;;;;;;;6.45;4.15;;;22.70;99.90;;;;;;5035190;28;20172;-57
2022/08/17 00:59:02;;;;;;;7.22;4.40;;;22.60;99.90;;;;;;5035156;28;20176;-57
2022/08/17 01:01:29;;;;;;;6.78;4.82;;;22.50;99.90;;;;;;5034673;28;20211;-58
2022/08/17 01:03:55;;;;;;;5.47;4.40;;;22.50;99.90;;;;;;5034925;28;20176;-58
2022/08/17 01:06:23;;;;;;;5.57;4.25;;;22.60;99.90;;;;;;5034790;28;20172;-56
2022/08/17 01:08:52;;;;;;;5.97;4.03;;;22.50;99.90;;;;;;5034733;28;20172;-57
2022/08/17 01:11:19;;;;;;;6.63;4.40;;;22.50;99.90;;;;;;5034610;28;20180;-57
2022/08/17 01:13:46;;;;;;;6.20;4.68;;;22.40;99.90;;;;;;5034447;28;20299;-57
2022/08/17 01:16:27;;;;;;;6.03;4.45;;;22.40;99.90;;;;;;5034483;28;20664;-58
2022/08/17 01:18:57;;;;;;;6.15;4.82;;;22.40;99.90;;;;;;5034218;28;20172;-58
2022/08/17 01:21:40;;;;;;;7.65;4.85;;;22.40;99.90;;;;;;5034342;28;20207;-57
2022/08/17 01:24:07;;;;;;;8.02;4.93;;;22.40;99.90;;;;;;5034347;28;20168;-58
2022/08/17 01:26:34;;;;;;;6.07;4.72;;;22.40;99.90;;;;;;5034582;28;20195;-57
2022/08/17 01:29:02;;;;;;;7.47;5.20;;;22.40;99.90;;;;;;5034201;28;20191;-57
2022/08/17 01:31:33;;;;;;;6.38;4.93;;;22.30;99.90;;;;;;5034302;28;20219;-57
2022/08/17 01:34:01;;;;;;;6.28;4.70;;;22.20;99.90;;;;;;5034217;28;20263;-57
2022/08/17 01:36:27;;;;;;;6.47;4.53;;;22.20;99.90;;;;;;5034001;28;20176;-57
2022/08/17 01:38:52;;;;;;;6.00;4.43;;;22.30;99.90;;;;;;5032774;28;20178;-58
2022/08/17 01:41:20;;;;;;;7.93;5.25;;;22.30;99.90;;;;;;5033011;28;20223;-57
2022/08/17 01:44:02;;;;;;;8.38;5.40;;;22.20;99.90;;;;;;5034173;28;20221;-57
2022/08/17 01:46:32;;;;;;;7.25;5.55;;;22.10;99.90;;;;;;5034117;28;20218;-57
2022/08/17 01:48:59;;;;;;;7.70;5.47;;;22.10;99.90;;;;;;5033775;28;20168;-57
2022/08/17 01:51:31;;;;;;;6.70;5.15;;;22.10;99.90;;;;;;5034117;28;20198;-57
2022/08/17 01:54:00;;;;;;;10.57;7.10;;;22.10;99.90;;;;;;5034040;28;20274;-58
2022/08/17 01:56:28;;;;;;;10.00;5.95;;;22.10;99.90;;;;;;5034058;28;20258;-57
2022/08/17 01:58:53;;;;;;;7.57;5.60;;;22.10;99.90;;;;;;5033775;28;20243;-58
2022/08/17 02:01:22;;;;;;;9.10;6.38;;;22.20;99.90;;;;;;5033678;28;20211;-58
2022/08/17 02:03:48;;;;;;;10.18;6.40;;;22.20;99.90;;;;;;5033538;28;20271;-57
2022/08/17 02:06:13;;;;;;;9.60;6.63;;;22.10;99.90;;;;;;5033592;28;20267;-58
2022/08/17 02:08:39;;;;;;;7.90;5.65;;;22.10;99.90;;;;;;5034003;28;20171;-58
2022/08/17 02:11:14;;;;;;;8.68;6.03;;;22.00;99.90;;;;;;5033690;28;20182;-57
2022/08/17 02:13:40;;;;;;;9.60;6.85;;;22.00;99.90;;;;;;5033712;28;20263;-58
2022/08/17 02:16:06;;;;;;;10.68;7.25;;;22.00;99.90;;;;;;5032128;28;20203;-57
2022/08/17 02:18:32;;;;;;;10.30;6.57;;;22.00;99.90;;;;;;5033392;28;20211;-58
2022/08/17 02:20:57;;;;;;;9.70;6.45;;;22.00;99.90;;;;;;5033440;28;20764;-58
2022/08/17 02:23:26;;;;;;;11.13;7.00;;;22.00;99.90;;;;;;5033753;28;20168;-58
2022/08/17 02:25:54;;;;;;;12.52;7.35;;;21.90;99.90;;;;;;5033214;28;20656;-57
2022/08/17 02:28:20;;;;;;;10.43;7.18;;;21.90;99.90;;;;;;5033058;28;20226;-58
2022/08/17 02:30:45;;;;;;;10.25;7.35;;;21.90;99.90;;;;;;5033189;28;20183;-56
2022/08/17 02:33:11;;;;;;;13.55;7.55;;;21.90;99.90;;;;;;5032283;28;20180;-57
2022/08/17 02:35:37;;;;;;;13.57;7.63;;;21.80;99.90;;;;;;5032199;28;20182;-58
2022/08/17 02:38:04;;;;;;;13.15;8.10;;;21.90;99.90;;;;;;5033315;28;20230;-58
2022/08/17 02:40:31;;;;;;;14.82;8.48;;;21.90;99.90;;;;;;5033130;28;20164;-58
2022/08/17 02:42:57;;;;;;;14.68;9.20;;;21.80;99.90;;;;;;5033216;28;20209;-57
2022/08/17 02:45:24;;;;;;;13.15;8.20;;;21.80;99.90;;;;;;5033021;28;20262;-57
2022/08/17 02:47:50;;;;;;;14.93;9.07;;;21.80;99.90;;;;;;5031641;28;20179;-57
2022/08/17 02:50:23;;;;;;;14.93;8.60;;;21.80;99.90;;;;;;5032064;28;20176;-57
2022/08/17 02:52:51;;;;;;;15.25;8.55;;;21.90;99.90;;;;;;5036057;28;20660;-57
2022/08/17 02:55:21;;;;;;;14.40;8.63;;;21.80;99.90;;;;;;5037261;28;20176;-57
2022/08/17 02:57:47;;;;;;;12.43;8.00;;;21.80;99.90;;;;;;5036928;28;20644;-57
2022/08/17 03:00:32;;;;;;;13.13;7.68;;;21.70;99.90;;;;;;5035988;28;20172;-58
2022/08/17 03:02:59;;;;;;;16.95;9.13;;;21.70;99.90;;;;;;5037205;28;20180;-58
2022/08/17 03:05:28;;;;;;;14.07;9.23;;;21.80;99.90;;;;;;5035778;28;20176;-57
2022/08/17 03:07:54;;;;;;;14.32;9.38;;;21.70;99.90;;;;;;5037035;28;20176;-57
2022/08/17 03:10:21;;;;;;;17.08;9.45;;;21.60;99.90;;;;;;5036796;28;20168;-57
2022/08/17 03:12:47;;;;;;;15.80;9.18;;;21.70;99.90;;;;;;5036793;28;20649;-57
2022/08/17 03:15:25;;;;;;;13.55;9.23;;;21.80;99.90;;;;;;5036973;28;20172;-57
2022/08/17 03:17:52;;;;;;;13.43;8.75;;;21.90;99.90;;;;;;5035852;28;20575;-57
2022/08/17 03:20:18;;;;;;;14.45;8.93;;;21.90;99.90;;;;;;5036633;28;20180;-57
2022/08/17 03:22:50;;;;;;;15.75;8.75;;;22.00;99.90;;;;;;5036535;28;20311;-57
2022/08/17 03:25:20;;;;;;;13.88;8.23;;;22.00;99.90;;;;;;5037223;28;20636;-57
2022/08/17 03:27:46;;;;;;;14.35;9.82;;;22.00;99.90;;;;;;5034971;28;20192;-56
2022/08/17 03:30:12;;;;;;;16.85;9.10;;;21.90;99.90;;;;;;5036801;28;20172;-56
2022/08/17 03:32:44;;;;;;;13.63;8.55;;;21.90;99.90;;;;;;5036451;28;20184;-57
2022/08/17 03:35:13;;;;;;;11.13;7.47;;;21.90;99.90;;;;;;5035309;28;20179;-56
2022/08/17 03:37:38;;;;;;;14.55;8.55;;;21.70;99.90;;;;;;5036532;28;20271;-57
2022/08/17 03:40:06;;;;;;;14.02;8.40;;;21.80;99.90;;;;;;5036474;28;20263;-56
2022/08/17 03:42:33;;;;;;;15.38;8.93;;;21.80;99.90;;;;;;5036407;28;20573;-57
2022/08/17 03:45:00;;;;;;;15.82;9.52;;;21.70;99.90;;;;;;5036358;28;20556;-57
2022/08/17 03:58:24;;;;;;;12.88;9.00;;;21.70;99.90;;;;;;5035991;28;20191;-56
2022/08/17 04:00:50;;;;;;;15.73;9.20;;;21.60;99.90;;;;;;5034903;28;20212;-57
2022/08/17 04:03:16;;;;;;;15.73;8.85;;;21.50;99.90;;;;;;5033633;28;20180;-57
2022/08/17 04:05:42;;;;;;;13.13;8.85;;;21.60;99.90;;;;;;5035961;28;20183;-57
2022/08/17 04:08:08;;;;;;;19.63;10.00;;;21.60;99.90;;;;;;5035946;28;20176;-57
2022/08/17 04:10:35;;;;;;;14.68;9.40;;;21.60;99.90;;;;;;5035723;28;20499;-57
2022/08/17 04:13:01;;;;;;;14.32;9.32;;;21.50;99.90;;;;;;5035812;28;20183;-57
2022/08/17 04:15:28;;;;;;;13.25;8.95;;;21.50;99.90;;;;;;5035863;28;20176;-57
2022/08/17 04:17:54;;;;;;;13.35;9.32;;;21.50;99.90;;;;;;5034526;28;20537;-58
2022/08/17 04:20:22;;;;;;;13.90;8.35;;;21.50;99.90;;;;;;5035914;28;20172;-57
2022/08/17 04:23:01;;;;;;;17.27;9.15;;;21.50;99.90;;;;;;5035353;28;20583;-57
2022/08/17 04:25:28;;;;;;;15.52;8.77;;;21.50;99.90;;;;;;5035550;28;20593;-57
2022/08/17 04:27:55;;;;;;;16.55;10.35;;;21.50;99.90;;;;;;5035609;28;20545;-57
2022/08/17 04:30:21;;;;;;;14.73;8.90;;;21.50;99.90;;;;;;5035604;28;20230;-55
2022/08/17 04:33:04;;;;;;;15.25;9.57;;;21.50;99.90;;;;;;5035580;28;20180;-56
2022/08/17 04:35:32;;;;;;;14.73;9.95;;;21.40;99.90;;;;;;5035398;28;20254;-57
2022/08/17 04:37:58;;;;;;;13.07;8.95;;;21.30;99.90;;;;;;5034032;28;20172;-56
2022/08/17 04:43:16;;;;;;;14.82;9.52;;;21.40;99.90;;;;;;5033887;28;20199;-56
2022/08/17 04:45:46;;;;;;;15.85;9.52;;;21.40;99.90;;;;;;5035126;28;20716;-57
2022/08/17 04:48:13;;;;;;;13.93;9.25;;;21.30;99.90;;;;;;5034996;28;20184;-56
2022/08/17 04:50:43;;;;;;;15.73;10.48;;;21.20;99.90;;;;;;5035274;28;20176;-57
2022/08/17 04:53:09;;;;;;;17.20;10.00;;;21.20;99.90;;;;;;5034883;28;20180;-57
2022/08/17 04:55:35;;;;;;;16.55;9.85;;;21.30;99.90;;;;;;5033813;28;20672;-57
2022/08/17 04:58:01;;;;;;;15.07;10.02;;;21.30;99.90;;;;;;5034922;28;20187;-56
2022/08/17 05:00:26;;;;;;;16.88;9.45;;;21.30;99.90;;;;;;5035088;28;20179;-57
2022/08/17 05:02:53;;;;;;;14.68;9.65;;;21.40;99.90;;;;;;5033567;28;20207;-56
2022/08/17 05:05:25;;;;;;;18.02;9.93;;;21.40;99.90;;;;;;5034754;28;20178;-57
2022/08/17 05:07:58;;;;;;;15.95;10.07;;;21.40;99.90;;;;;;5034078;28;20286;-57
2022/08/17 05:10:27;;;;;;;15.07;9.50;;;21.40;99.90;;;;;;5034859;28;20171;-58
2022/08/17 05:13:01;;;;;;;13.80;9.52;;;21.50;99.90;;;;;;5033566;28;20183;-56
2022/08/17 05:15:28;;;;;;;15.13;10.00;;;21.50;99.90;;;;;;5034162;28;20786;-56
2022/08/17 05:17:54;;;;;;;15.38;10.13;;;21.30;99.90;;;;;;5034803;28;20264;-57
2022/08/17 05:20:20;;;;;;;15.48;10.20;;;21.40;99.90;;;;;;5034699;28;20254;-58
2022/08/17 05:22:50;;;;;;;17.25;9.77;;;21.30;99.90;;;;;;5034417;28;20264;-57
2022/08/17 05:25:25;;;;;;;16.63;10.40;;;21.30;99.90;;;;;;5033328;28;20593;-57
2022/08/17 05:27:52;;;;;;;15.68;9.90;;;21.20;99.90;;;;;;5033108;28;20282;-57
2022/08/17 05:30:17;;;;;;;15.57;9.50;;;21.30;99.90;;;;;;5032518;28;20636;-57
2022/08/17 05:32:58;;;;;;;16.67;9.85;;;21.10;99.90;;;;;;5034379;28;20233;-57
2022/08/17 05:35:26;;;;;;;15.43;9.75;;;21.20;99.90;;;;;;5034633;28;20236;-58
2022/08/17 05:37:52;;;;;;;15.90;10.00;;;21.20;99.90;;;;;;5034210;28;20179;-57
2022/08/17 05:40:20;;;;;;;18.02;10.02;;;21.30;99.90;;;;;;5034055;28;20639;-58
2022/08/17 05:42:46;;;;;;;15.60;9.60;;;21.20;99.90;;;;;;5033886;28;20668;-58
2022/08/17 05:45:14;;;;;;;15.63;9.43;;;21.20;99.90;;;;;;5033089;28;20172;-57
2022/08/17 05:47:43;;;;;;;13.60;8.98;;;21.30;99.90;;;;;;5034040;28;20640;-57
2022/08/17 05:50:20;;;;;;;16.33;10.30;;;21.20;99.90;;;;;;5034237;28;20172;-58
2022/08/17 05:53:24;;;;;;;16.17;9.70;;;21.20;99.90;;;;;;5033847;28;20249;-58
2022/08/17 05:56:05;;;;;;;14.55;8.82;;;21.20;99.90;;;;;;5022596;28;20192;-57
2022/08/17 05:58:41;;;;;;;16.58;10.07;;;21.20;99.90;;;;;;5033844;28;20180;-58
2022/08/17 06:01:30;;;;;;;14.82;9.52;;;21.30;99.90;;;;;;5033651;28;20235;-58
2022/08/17 06:04:17;;;;;;;14.50;9.75;;;21.20;99.90;;;;;;5033983;28;20592;-58
2022/08/17 06:06:55;;;;;;;17.00;10.45;;;21.30;99.90;;;;;;5033927;28;20171;-57
2022/08/17 06:09:56;;;;;;;13.98;9.18;;;21.40;99.90;;;;;;5033680;28;20708;-58
2022/08/17 06:12:40;;;;;;;17.83;10.13;;;21.50;99.90;;;;;;5033718;28;20652;-57
2022/08/17 06:15:27;;;;;;;17.65;10.15;;;21.40;99.90;;;;;;5033700;28;20226;-58
2022/08/17 06:18:00;;;;;;;18.60;10.55;;;21.40;99.90;;;;;;5033474;28;20172;-58
2022/08/17 06:20:34;;;;;;;15.45;9.95;;;21.30;99.90;;;;;;5033739;28;20160;-58
2022/08/17 06:23:11;;;;;;;15.02;9.82;;;21.40;99.90;;;;;;5033873;28;20269;-57
2022/08/17 06:26:02;;;;;;;17.48;9.98;;;21.50;99.90;;;;;;5032622;28;20203;-57
2022/08/17 06:28:48;;;;;;;16.58;10.70;;;21.50;99.90;;;;;;5033341;28;20295;-58
2022/08/17 06:31:26;;;;;;;16.77;10.82;;;21.60;99.90;;;;;;5033591;28;20233;-58
2022/08/17 06:33:54;;;;;;;14.52;9.90;;;21.60;99.90;;;;;;5033585;28;20679;-58
2022/08/17 06:36:39;;;;;;;15.35;9.70;;;21.60;99.90;;;;;;5033244;28;20164;-58
2022/08/17 06:39:29;;;;;;;14.95;9.55;;;21.70;99.90;;;;;;5033318;28;20633;-58
2022/08/17 06:42:15;;;;;;;17.55;10.55;;;21.70;99.90;;;;;;5033353;28;20204;-57
2022/08/17 06:45:03;;;;;;;15.05;9.75;;;21.60;99.90;;;;;;5033235;28;20164;-57
2022/08/17 06:47:39;;;;;;;14.32;10.00;;;21.70;99.90;;;;;;5033347;28;20179;-58
2022/08/17 06:50:46;;;;;;;15.18;9.73;;;21.70;99.90;;;;;;5033270;28;20585;-59
2022/08/17 06:53:23;;;;;;;15.57;9.85;;;21.80;99.90;;;;;;5027016;28;20188;-57
2022/08/17 06:55:54;;;;;;;16.13;10.00;;;21.70;99.90;;;;;;5033284;28;20254;-57
2022/08/17 06:58:22;;;;;;;15.23;9.27;;;21.80;99.90;;;;;;5033349;28;20180;-58
2022/08/17 07:00:51;;;;;;;14.07;9.00;;;21.80;99.90;;;;;;5033026;28;20207;-58
2022/08/17 07:03:46;;;;;;;13.52;8.60;;;21.70;99.90;;;;;;5033220;28;20251;-57
2022/08/17 07:06:17;;;;;;;12.98;9.05;;;21.70;99.90;;;;;;5033180;28;20195;-58
2022/08/17 07:09:28;;;;;;;13.05;8.88;;;21.70;99.90;;;;;;5032971;28;20222;-58
2022/08/17 07:12:02;;;;;;;12.63;8.15;;;21.80;99.90;;;;;;5010995;28;20184;-57
2022/08/17 07:14:38;;;;;;;13.45;7.85;;;21.90;99.90;;;;;;5029628;28;20672;-58
2022/08/17 07:17:12;;;;;;;15.02;9.35;;;21.90;99.90;;;;;;5033037;28;20254;-58
2022/08/17 07:19:40;;;;;;;11.32;7.85;;;21.80;99.90;;;;;;5031769;28;20694;-58
2022/08/17 07:22:37;;;;;;;11.23;7.72;;;21.80;99.90;;;;;;5032625;28;20223;-58
2022/08/17 07:25:07;;;;;;;11.93;7.97;;;21.90;99.90;;;;;;5032743;28;20172;-58
2022/08/17 07:27:44;;;;;;;11.75;8.13;;;21.80;99.90;;;;;;5032754;28;20180;-56
2022/08/17 07:30:15;;;;;;;11.05;7.03;;;21.80;99.90;;;;;;5032853;28;20659;-57
2022/08/17 07:32:48;;;;;;;10.40;6.82;;;21.80;99.90;;;;;;5032715;28;20173;-57
2022/08/17 07:35:27;;;;;;;10.73;6.45;;;21.90;99.90;;;;;;5033008;28;20554;-58
2022/08/17 07:38:13;;;;;;;10.00;6.75;;;21.90;99.90;;;;;;5035248;28;20172;-58
2022/08/17 07:40:44;;;;;;;10.50;6.10;;;21.90;99.90;;;;;;5036404;28;20591;-58
2022/08/17 07:43:18;;;;;;;10.82;6.45;;;21.80;99.90;;;;;;5036271;28;20168;-58
2022/08/17 07:49:07;;;;;;;10.18;6.60;;;21.70;99.90;;;;;;5036510;28;20529;-58
2022/08/17 07:51:39;;;;;;;9.05;6.30;;;21.80;99.90;;;;;;5035114;28;20183;-57
2022/08/17 07:54:14;;;;;;;9.55;6.05;;;21.80;99.90;;;;;;5036459;28;20263;-57
2022/08/17 07:56:42;;;;;;;9.38;6.68;;;21.80;99.90;;;;;;5036046;28;20501;-58
2022/08/17 07:59:27;;;;;;;10.35;6.55;;;21.80;99.90;;;;;;5034780;28;20702;-58
2022/08/17 08:01:56;;;;;;;8.30;5.65;;;21.80;99.90;;;;;;5035924;28;20250;-58
2022/08/17 08:04:38;;;;;;;9.40;6.55;;;21.80;99.90;;;;;;5035833;28;20184;-57
2022/08/17 08:07:10;;;;;;;10.63;6.50;;;21.80;99.90;;;;;;5036067;28;20174;-58
2022/08/17 08:09:40;;;;;;;9.88;5.93;;;21.80;99.90;;;;;;5035892;28;20172;-57
2022/08/17 08:12:34;;;;;;;9.60;6.47;;;21.70;99.90;;;;;;5036173;28;20172;-58
2022/08/17 08:15:17;;;;;;;9.55;6.93;;;21.80;99.90;;;;;;5035903;28;20179;-58
2022/08/17 08:17:56;;;;;;;11.00;7.18;;;21.80;99.90;;;;;;5034898;28;20175;-58
2022/08/17 08:20:35;;;;;;;9.45;7.05;;;21.80;99.90;;;;;;5035806;28;20195;-58
2022/08/17 08:23:14;;;;;;;11.20;6.68;;;21.80;99.90;;;;;;5035708;28;20214;-58
2022/08/17 08:26:05;;;;;;;10.07;7.63;;;21.70;99.90;;;;;;5035762;28;20168;-59
2022/08/17 08:28:50;;;;;;;10.30;7.30;;;21.70;99.90;;;;;;5035532;28;20542;-58
2022/08/17 08:31:18;;;;;;;12.70;7.97;;;21.60;99.90;;;;;;5035424;28;20172;-58
2022/08/17 08:33:57;;;;;;;10.35;6.50;;;21.50;99.90;;;;;;5035490;28;20269;-58
2022/08/17 08:36:23;;;;;;;9.10;7.10;;;21.60;99.90;;;;;;5035548;28;20595;-59
2022/08/17 08:39:05;;;;;;;10.60;7.35;;;21.50;99.90;;;;;;5035280;28;20183;-57
2022/08/17 08:42:02;;;;;;;8.30;6.57;;;21.50;99.90;;;;;;5035156;28;20203;-58
2022/08/17 08:44:36;;;;;;;10.38;7.22;;;21.60;99.90;;;;;;5035285;28;20533;-58
2022/08/17 08:47:20;;;;;;;8.80;6.78;;;21.50;99.90;;;;;;5035397;28;20191;-58
2022/08/17 08:50:02;;;;;;;10.85;7.32;;;21.50;99.90;;;;;;5034634;28;20226;-58
2022/08/17 08:53:01;;;;;;;11.13;7.68;;;21.60;99.90;;;;;;5034371;28;20176;-58
2022/08/17 08:56:22;;;;;;;10.93;7.57;;;21.70;99.90;;;;;;5035162;28;20164;-59
2022/08/17 08:58:54;;;;;;;11.25;8.05;;;21.80;99.90;;;;;;5001293;28;20261;-59
2022/08/17 09:01:36;;;;;;;12.80;7.72;;;21.80;99.90;;;;;;5034900;28;20206;-58
2022/08/17 09:04:17;;;;;;;12.40;8.18;;;21.90;99.90;;;;;;5034916;28;20589;-58
2022/08/17 09:07:10;;;;;;;12.63;8.30;;;21.90;99.90;;;;;;5035035;28;20160;-58
2022/08/17 09:10:09;;;;;;;12.10;8.23;;;21.90;99.90;;;;;;5034881;28;20265;-58
2022/08/17 09:12:48;;;;;;;12.88;8.65;;;21.90;99.90;;;;;;5034533;28;20718;-57
2022/08/17 09:15:26;;;;;;;14.43;8.43;;;21.90;99.90;;;;;;5034941;28;20172;-58
2022/08/17 09:17:59;;;;;;;11.63;8.02;;;21.80;99.90;;;;;;5034775;28;20191;-58
2022/08/17 09:20:56;;;;;;;14.43;8.18;;;21.80;99.90;;;;;;5034652;28;20625;-58
2022/08/17 09:23:32;;;;;;;12.70;8.38;;;21.80;99.90;;;;;;5030094;28;20208;-59
2022/08/17 09:26:24;;;;;;;13.20;9.02;;;21.70;99.90;;;;;;5033317;28;20206;-59
2022/08/17 09:28:54;;;;;;;13.55;9.30;;;21.80;99.90;;;;;;5034527;28;20242;-59
2022/08/17 09:31:25;;;;;;;12.18;8.98;;;21.70;99.90;;;;;;5034244;28;20183;-58
2022/08/17 09:33:52;;;;;;;13.50;9.70;;;21.80;99.90;;;;;;5034502;28;20175;-58
2022/08/17 09:36:26;;;;;;;15.50;9.07;;;21.80;99.90;;;;;;5034380;28;20191;-58
2022/08/17 09:39:09;;;;;;;12.80;8.60;;;21.70;99.90;;;;;;5034310;28;20583;-58
2022/08/17 09:42:16;;;;;;;14.88;9.13;;;21.70;99.90;;;;;;5034168;28;20346;-59
2022/08/17 09:45:06;;;;;;;14.32;8.98;;;21.70;99.90;;;;;;5034223;28;20199;-59
2022/08/17 09:48:04;;;;;;;12.20;9.27;;;21.90;99.90;;;;;;5032841;28;20180;-58
2022/08/17 09:50:39;;;;;;;13.63;9.43;;;22.00;99.90;;;;;;5029444;28;20184;-58
2022/08/17 09:53:06;;;;;;;18.63;9.50;;;22.00;99.90;;;;;;5034098;28;20172;-58
2022/08/17 09:55:59;;;;;;;12.98;9.20;;;21.90;99.90;;;;;;5033958;28;20593;-58
2022/08/17 09:58:36;;;;;;;14.45;9.18;;;21.90;99.90;;;;;;5034196;28;20180;-58
2022/08/17 10:01:36;;;;;;;14.32;8.95;;;21.80;99.90;;;;;;5033885;28;20203;-58
2022/08/17 10:04:18;;;;;;;13.73;10.00;;;21.90;99.90;;;;;;5033817;28;20188;-58
2022/08/17 10:06:57;;;;;;;13.95;9.30;;;22.00;99.90;;;;;;5033742;28;20187;-58
2022/08/17 10:09:35;;;;;;;15.85;10.00;;;22.00;99.90;;;;;;5033778;28;20171;-58
2022/08/17 10:12:23;;;;;;;16.15;9.98;;;22.00;99.90;;;;;;5034078;28;20202;-58
2022/08/17 10:15:17;;;;;;;12.13;8.55;;;22.00;99.90;;;;;;5033574;28;20168;-58
2022/08/17 10:18:13;;;;;;;12.82;9.20;;;22.10;99.90;;;;;;5033752;28;20203;-58
2022/08/17 10:26:11;;;;;;;14.20;9.05;;;22.10;99.90;;;;;;5033500;28;20233;-58
2022/08/17 10:26:34;;;;;;;15.45;10.20;;;22.10;99.90;;;;;;5033748;28;20190;-58
2022/08/17 10:29:20;;;;;;;16.08;9.65;;;22.10;99.90;;;;;;5033214;28;20202;-58
2022/08/17 10:31:52;;;;;;;14.30;9.38;;;22.20;99.90;;;;;;5032930;28;20188;-57
2022/08/17 10:34:36;;;;;;;14.73;10.25;;;22.10;99.90;;;;;;5033310;28;20168;-58
2022/08/17 10:37:12;;;;;;;14.75;9.50;;;22.00;99.90;;;;;;5033430;28;20179;-58
2022/08/17 10:40:15;;;;;;;14.68;8.90;;;22.00;99.90;;;;;;5032207;28;20178;-58
2022/08/17 10:43:14;;;;;;;13.55;9.75;;;22.00;99.90;;;;;;5033268;28;20215;-58
2022/08/17 10:46:05;;;;;;;11.55;8.48;;;21.80;99.90;;;;;;5033228;28;20176;-59
2022/08/17 10:48:35;;;;;;;12.30;8.70;;;21.80;99.90;;;;;;5033140;28;20172;-59
2022/08/17 10:51:22;;;;;;;11.10;8.73;;;21.80;99.90;;;;;;5033277;28;20187;-58
2022/08/17 10:53:49;;;;;;;10.48;7.22;;;21.80;99.90;;;;;;5033307;28;20569;-57
2022/08/17 10:56:17;;;;;;;11.07;7.63;;;21.70;99.90;;;;;;5033430;28;20179;-58
2022/08/17 10:58:59;;;;;;;11.35;7.78;;;21.70;99.90;;;;;;5033366;28;20265;-58
2022/08/17 11:01:31;;;;;;;12.15;7.57;;;21.70;99.90;;;;;;5033209;28;20239;-58
2022/08/17 11:04:20;;;;;;;11.30;7.70;;;21.70;99.90;;;;;;5033239;28;20179;-58
2022/08/17 11:07:18;;;;;;;9.57;7.47;;;21.70;99.90;;;;;;5033084;28;20183;-59
2022/08/17 11:10:17;;;;;;;10.15;6.97;;;21.50;99.90;;;;;;5033075;28;20533;-59
2022/08/17 11:13:01;;;;;;;9.70;6.30;;;21.50;99.90;;;;;;5035315;28;20270;-59
2022/08/17 11:15:55;;;;;;;8.93;6.65;;;21.50;99.90;;;;;;5036945;28;20191;-57
2022/08/17 11:18:42;;;;;;;8.98;6.45;;;21.50;99.90;;;;;;5037370;28;20282;-58
2022/08/17 11:21:24;;;;;;;8.32;6.18;;;21.50;99.90;;;;;;5037167;28;20302;-58
2022/08/17 11:24:00;;;;;;;8.88;6.50;;;21.40;99.90;;;;;;5035511;28;20180;-58
2022/08/17 11:26:32;;;;;;;10.10;7.05;;;21.40;99.90;;;;;;5036975;28;20178;-58
2022/08/17 11:29:02;;;;;;;8.18;6.15;;;21.40;99.90;;;;;;5036497;28;20203;-58
2022/08/17 11:31:33;;;;;;;7.45;6.00;;;21.40;99.90;;;;;;5036648;28;20232;-58
2022/08/17 11:34:03;;;;;;;8.82;6.78;;;21.40;99.90;;;;;;5036610;28;20178;-58
2022/08/17 11:36:55;;;;;;;8.60;6.43;;;21.40;99.90;;;;;;5036481;28;20176;-58
2022/08/17 11:39:27;;;;;;;9.15;6.43;;;21.50;99.90;;;;;;5036823;28;20179;-58
2022/08/17 11:42:18;;;;;;;9.00;6.47;;;21.50;99.90;;;;;;5036490;28;20203;-58
2022/08/17 11:44:52;;;;;;;8.80;6.28;;;21.50;99.90;;;;;;5036186;28;20663;-58
2022/08/17 11:53:36;;;;;;;6.47;5.18;;;21.70;99.90;;;;;;5036170;28;20191;-58
2022/08/17 11:56:05;;;;;;;8.07;5.57;;;21.80;99.90;;;;;;5035012;28;20199;-58
2022/08/17 11:58:37;;;;;;;6.53;5.13;;;21.80;99.90;;;;;;5036484;28;20646;-58
2022/08/17 12:01:31;;;;;;;9.00;5.47;;;21.90;99.90;;;;;;5034817;28;20299;-58
2022/08/17 12:04:26;;;;;;;6.10;4.97;;;21.90;99.90;;;;;;5036099;28;20174;-58
2022/08/17 12:07:15;;;;;;;7.82;5.53;;;21.90;99.90;;;;;;5035187;28;20227;-59
2022/08/17 12:09:47;;;;;;;8.13;5.32;;;21.80;99.90;;;;;;5035745;28;20541;-58
2022/08/17 12:12:18;;;;;;;6.20;5.10;;;21.90;99.90;;;;;;5036147;28;20164;-58
2022/08/17 12:14:51;;;;;;;8.35;5.68;;;21.80;99.90;;;;;;5036051;28;20172;-58
2022/08/17 12:17:22;;;;;;;7.68;5.03;;;21.70;99.90;;;;;;5036039;28;20717;-58
2022/08/17 12:19:48;;;;;;;7.25;5.30;;;21.80;99.90;;;;;;5035786;28;20234;-58
2022/08/17 12:22:31;;;;;;;6.75;4.80;;;21.80;99.90;;;;;;5034439;28;20734;-59
2022/08/17 12:25:03;;;;;;;6.97;4.95;;;21.80;99.90;;;;;;5034911;28;20313;-58
2022/08/17 12:27:33;;;;;;;5.82;4.35;;;21.70;99.90;;;;;;5035470;28;20164;-58
2022/08/17 12:30:04;;;;;;;4.88;4.22;;;21.80;99.90;;;;;;5035597;28;20176;-57
2022/08/17 12:32:34;;;;;;;5.70;4.40;;;22.00;99.90;;;;;;5035546;28;20537;-59
2022/08/17 12:35:02;;;;;;;6.97;4.43;;;22.00;99.90;;;;;;5035297;28;20180;-58
2022/08/17 12:37:32;;;;;;;6.53;4.35;;;22.00;99.90;;;;;;5035505;28;20319;-58
2022/08/17 12:40:16;;;;;;;5.43;4.10;;;21.90;99.90;;;;;;5035477;28;20215;-58
2022/08/17 12:42:54;;;;;;;5.75;4.47;;;22.00;99.90;;;;;;5035282;28;20209;-58
2022/08/17 12:45:28;;;;;;;5.10;3.80;;;21.90;99.90;;;;;;5035163;28;20183;-58
2022/08/17 12:48:12;;;;;;;6.00;4.18;;;21.80;99.90;;;;;;5035410;28;20167;-58
2022/08/17 12:50:43;;;;;;;6.00;4.65;;;21.70;99.90;;;;;;5035352;28;20219;-58
2022/08/17 12:53:26;;;;;;;5.00;3.85;;;21.70;99.90;;;;;;5035416;28;20191;-58
2022/08/17 12:55:53;;;;;;;5.35;4.05;;;21.60;99.90;;;;;;5035062;28;20180;-58
2022/08/17 12:58:24;;;;;;;5.15;3.80;;;21.60;99.90;;;;;;5034881;28;20176;-58
2022/08/17 13:00:58;;;;;;;5.57;4.18;;;21.60;99.90;;;;;;5035088;28;20187;-58
2022/08/17 13:03:30;;;;;;;7.32;4.13;;;21.50;99.90;;;;;;5034994;28;20173;-58
2022/08/17 13:06:03;;;;;;;6.60;4.78;;;21.30;99.90;;;;;;5035012;28;20187;-59
2022/08/17 13:08:41;;;;;;;5.13;4.10;;;21.20;99.90;;;;;;5034599;28;20181;-58
2022/08/17 13:11:17;;;;;;;5.88;4.53;;;21.30;99.90;;;;;;5035043;28;20612;-58
2022/08/17 13:13:50;;;;;;;5.75;4.18;;;21.40;99.90;;;;;;5034769;28;20538;-58
2022/08/17 13:16:19;;;;;;;6.22;4.75;;;21.40;99.90;;;;;;5032859;28;20238;-58
2022/08/17 13:18:54;;;;;;;6.50;4.63;;;21.50;99.90;;;;;;5034616;28;20175;-58
2022/08/17 13:21:22;;;;;;;6.32;4.82;;;21.40;99.90;;;;;;5034829;28;20235;-58
2022/08/17 13:23:58;;;;;;;6.88;4.65;;;21.30;99.90;;;;;;5034572;28;20541;-59
2022/08/17 13:26:37;;;;;;;6.32;4.57;;;21.40;99.90;;;;;;5034535;28;20167;-58
2022/08/17 13:29:34;;;;;;;6.65;4.60;;;21.40;99.90;;;;;;5034516;28;20532;-58
2022/08/17 13:32:05;;;;;;;6.47;4.63;;;21.50;99.90;;;;;;5034527;28;20629;-59
2022/08/17 13:34:42;;;;;;;7.03;5.03;;;21.40;99.90;;;;;;5034119;28;20172;-58
2022/08/17 13:37:25;;;;;;;7.07;4.95;;;21.30;99.90;;;;;;5034416;28;20171;-58
2022/08/17 13:40:19;;;;;;;6.88;4.82;;;21.10;99.90;;;;;;5034378;28;20164;-59
2022/08/17 13:42:49;;;;;;;6.50;4.30;;;21.20;99.90;;;;;;5034039;28;20215;-58
2022/08/17 13:45:30;;;;;;;7.07;5.07;;;21.20;99.90;;;;;;5034066;28;20587;-58
2022/08/17 13:48:08;;;;;;;7.22;5.15;;;21.20;99.90;;;;;;5034061;28;20187;-58